Time;durP1;ratioP1;P1;durP2;ratioP2;P2;SDS_P1;SDS_P2;PMS_P1;PMS_P2;Temp;Humidity;BMP_temperature;BMP_pressure;BME280_temperature;BME280_humidity;BME280_pressure;Samples;Min_cycle;Max_cycle;Signal;HPM_P1;HPM_P2
2024/01/08 00:01:50;;;;;;;2.60;2.40;;;;;;;0.18;100.00;103119.72;6113382;28;20232;-67
2024/01/08 00:05:11;;;;;;;3.40;2.70;;;;;;;0.19;100.00;103119.69;6113244;28;20563;-65
2024/01/08 00:08:31;;;;;;;5.27;3.70;;;;;;;0.15;100.00;103125.91;6112378;28;20742;-67
2024/01/08 00:11:52;;;;;;;2.70;2.53;;;;;;;0.21;100.00;103127.66;6104638;28;20704;-67
2024/01/08 00:15:13;;;;;;;2.40;2.20;;;;;;;0.24;100.00;103141.75;6110340;28;20239;-67
2024/01/08 00:18:36;;;;;;;2.60;2.40;;;;;;;0.21;100.00;103140.91;6109894;28;20236;-67
2024/01/08 00:21:57;;;;;;;3.20;2.77;;;;;;;0.17;100.00;103134.72;6107411;28;20235;-67
2024/01/08 00:25:21;;;;;;;2.97;2.67;;;;;;;0.22;100.00;103137.34;6106328;28;20243;-68
2024/01/08 00:28:42;;;;;;;7.30;3.17;;;;;;;0.16;100.00;103140.94;6105492;28;20224;-67
2024/01/08 00:32:05;;;;;;;3.00;2.73;;;;;;;0.11;100.00;103142.75;6109623;28;20323;-67
2024/01/08 00:35:27;;;;;;;1.53;1.43;;;;;;;0.08;100.00;103149.88;6108974;28;20236;-68
2024/01/08 00:38:48;;;;;;;3.30;3.07;;;;;;;0.08;100.00;103147.22;6108806;28;20823;-66
2024/01/08 00:42:09;;;;;;;3.00;2.80;;;;;;;0.05;100.00;103142.81;6106505;28;20232;-67
2024/01/08 00:45:30;;;;;;;2.90;2.70;;;;;;;0.06;100.00;103141.94;6109328;28;20508;-67
2024/01/08 00:48:51;;;;;;;5.03;2.80;;;;;;;0.02;100.00;103141.97;6112024;28;20231;-67
2024/01/08 00:52:13;;;;;;;2.70;2.50;;;;;;;-0.08;100.00;103143.81;6106999;28;20236;-67
2024/01/08 00:55:34;;;;;;;3.33;2.87;;;;;;;-0.07;100.00;103153.53;6107372;28;20235;-67
2024/01/08 00:58:56;;;;;;;3.03;2.83;;;;;;;-0.03;100.00;103148.19;6114491;28;20232;-67
2024/01/08 01:02:17;;;;;;;2.03;1.93;;;;;;;-0.04;100.00;103156.13;6117585;28;20236;-66
2024/01/08 01:05:38;;;;;;;2.47;2.17;;;;;;;-0.08;100.00;103157.06;6111961;28;20227;-66
2024/01/08 01:09:00;;;;;;;3.10;2.90;;;;;;;-0.06;100.00;103155.28;6110617;28;22327;-67
2024/01/08 01:12:20;;;;;;;3.73;2.10;;;;;;;-0.08;100.00;103162.34;6117883;28;20227;-67
2024/01/08 01:15:42;;;;;;;2.60;2.40;;;;;;;-0.03;100.00;103163.22;6107541;28;20708;-66
2024/01/08 01:19:03;;;;;;;2.70;2.13;;;;;;;-0.06;100.00;103161.47;6115433;28;20868;-67
2024/01/08 01:22:23;;;;;;;2.87;1.97;;;;;;;-0.08;100.00;103163.25;6113161;28;20231;-67
2024/01/08 01:25:46;;;;;;;2.57;2.07;;;;;;;-0.05;100.00;103165.88;6113985;28;20624;-67
2024/01/08 01:29:07;;;;;;;3.83;2.20;;;;;;;-0.02;100.00;103168.50;6112066;28;20236;-67
2024/01/08 01:32:28;;;;;;;2.30;2.10;;;;;;;-0.01;100.00;103162.31;6117475;28;20243;-66
2024/01/08 01:35:49;;;;;;;2.57;2.37;;;;;;;-0.02;100.00;103170.25;6111000;28;20231;-67
2024/01/08 01:39:10;;;;;;;1.87;1.77;;;;;;;-0.02;100.00;103173.78;6103533;28;20236;-67
2024/01/08 01:42:32;;;;;;;2.60;2.50;;;;;;;-0.02;100.00;103171.13;6116615;28;20228;-67
2024/01/08 01:45:55;;;;;;;1.97;1.77;;;;;;;-0.12;100.00;103166.81;6111824;28;20679;-66
2024/01/08 01:49:19;;;;;;;3.00;2.27;;;;;;;-0.10;100.00;103170.31;6112685;28;20239;-67
2024/01/08 01:52:43;;;;;;;2.33;2.23;;;;;;;-0.08;100.00;103181.78;6105776;28;20231;-66
2024/01/08 01:56:04;;;;;;;2.57;2.10;;;;;;;0.01;100.00;103183.50;6106563;28;20551;-67
2024/01/08 01:59:27;;;;;;;2.07;1.87;;;;;;;-0.04;100.00;103178.22;6113228;28;20240;-67
2024/01/08 02:02:48;;;;;;;1.53;1.40;;;;;;;0.00;100.00;103177.31;6114887;28;20276;-66
2024/01/08 02:06:10;;;;;;;2.33;2.13;;;;;;;-0.05;100.00;103180.91;6108288;28;20231;-67
2024/01/08 02:09:32;;;;;;;1.80;1.67;;;;;;;0.01;100.00;103175.53;6111584;28;20232;-67
2024/01/08 02:12:53;;;;;;;1.80;1.40;;;;;;;-0.01;100.00;103166.72;6109604;28;20232;-67
2024/01/08 02:16:17;;;;;;;4.03;2.00;;;;;;;0.00;100.00;103172.00;6105932;28;20314;-67
2024/01/08 02:19:38;;;;;;;2.83;2.60;;;;;;;0.07;100.00;103169.31;6110922;28;20322;-66
2024/01/08 02:23:00;;;;;;;2.07;1.87;;;;;;;0.07;100.00;103169.31;6112922;28;21681;-67
2024/01/08 02:26:22;;;;;;;1.87;1.77;;;;;;;0.01;100.00;103178.19;6113278;28;20232;-66
2024/01/08 02:29:43;;;;;;;2.40;2.20;;;;;;;0.02;100.00;103176.44;6106759;28;20338;-66
2024/01/08 02:33:04;;;;;;;1.70;1.60;;;;;;;-0.04;100.00;103178.22;6114068;28;20239;-66
2024/01/08 02:36:25;;;;;;;2.30;2.10;;;;;;;-0.01;100.00;103183.53;6111581;28;20617;-66
2024/01/08 02:39:47;;;;;;;2.10;1.27;;;;;;;0.02;100.00;103187.03;6111489;28;20228;-67
2024/01/08 02:43:08;;;;;;;3.03;1.80;;;;;;;0.01;100.00;103188.81;6112132;28;20227;-67
2024/01/08 02:46:28;;;;;;;2.27;2.17;;;;;;;0.08;100.00;103189.63;6111747;28;20346;-67
2024/01/08 02:49:49;;;;;;;2.23;2.07;;;;;;;0.02;100.00;103184.38;6102282;28;20236;-66
2024/01/08 02:53:10;;;;;;;1.70;1.60;;;;;;;0.02;100.00;103187.91;6113627;28;20511;-67
2024/01/08 02:56:33;;;;;;;2.33;1.50;;;;;;;-0.12;100.00;103193.31;6113202;28;20243;-66
2024/01/08 02:59:54;;;;;;;2.67;2.47;;;;;;;0.04;100.00;103193.19;6109819;28;20228;-67
2024/01/08 03:03:15;;;;;;;1.70;1.60;;;;;;;0.15;100.00;103191.34;6109942;28;20628;-66
2024/01/08 03:06:36;;;;;;;1.43;1.33;;;;;;;0.16;100.00;103203.69;6109868;28;20248;-66
2024/01/08 03:09:58;;;;;;;1.40;1.10;;;;;;;0.17;100.00;103201.03;6109760;28;20312;-66
2024/01/08 03:13:20;;;;;;;3.30;3.00;;;;;;;0.16;100.00;103203.69;6108807;28;20239;-66
2024/01/08 03:16:41;;;;;;;2.40;1.40;;;;;;;0.24;100.00;103208.03;6105074;28;20307;-66
2024/01/08 03:20:02;;;;;;;1.40;1.27;;;;;;;0.27;100.00;103208.00;6102012;28;20227;-67
2024/01/08 03:23:23;;;;;;;1.90;1.20;;;;;;;0.26;100.00;103206.25;6114853;28;20256;-67
2024/01/08 03:26:43;;;;;;;3.13;1.20;;;;;;;0.16;100.00;103212.53;6108745;28;20273;-67
2024/01/08 03:30:07;;;;;;;1.83;1.40;;;;;;;0.19;100.00;103206.34;6109766;28;20235;-68
2024/01/08 03:33:28;;;;;;;2.80;1.77;;;;;;;0.22;100.00;103208.94;6107018;28;20625;-67
2024/01/08 03:36:49;;;;;;;1.73;1.63;;;;;;;0.23;100.00;103214.22;6106433;28;20603;-66
2024/01/08 03:40:11;;;;;;;1.47;1.33;;;;;;;0.18;100.00;103217.81;6109673;28;20252;-67
2024/01/08 03:43:32;;;;;;;1.50;1.40;;;;;;;0.27;100.00;103208.00;6106107;28;20231;-67
2024/01/08 03:46:54;;;;;;;2.10;1.83;;;;;;;0.28;100.00;103211.53;6109672;28;20236;-67
2024/01/08 03:50:16;;;;;;;1.43;1.33;;;;;;;0.26;100.00;103208.03;6107103;28;20231;-67
2024/01/08 03:53:37;;;;;;;1.60;1.20;;;;;;;0.22;100.00;103220.44;6113174;28;20227;-68
2024/01/08 03:56:57;;;;;;;1.87;1.77;;;;;;;0.26;100.00;103210.69;6106342;28;20243;-68
2024/01/08 04:00:19;;;;;;;3.13;1.33;;;;;;;0.18;100.00;103210.75;6111270;28;20263;-67
2024/01/08 04:03:41;;;;;;;2.57;1.70;;;;;;;0.23;100.00;103222.19;6116690;28;20236;-66
2024/01/08 04:07:02;;;;;;;1.80;1.20;;;;;;;0.29;100.00;103222.16;6112676;28;20232;-68
2024/01/08 04:10:23;;;;;;;1.60;1.50;;;;;;;0.31;100.00;103211.53;6106901;28;20227;-67
2024/01/08 04:13:44;;;;;;;2.20;1.40;;;;;;;0.33;100.00;103215.03;6110761;28;20233;-67
2024/01/08 04:17:05;;;;;;;2.20;2.00;;;;;;;0.34;100.00;103220.31;6103136;28;20237;-67
2024/01/08 04:20:27;;;;;;;3.07;1.43;;;;;;;0.33;100.00;103220.34;6110651;28;20231;-67
2024/01/08 04:23:48;;;;;;;2.73;1.87;;;;;;;0.37;100.00;103217.66;6111955;28;20315;-67
2024/01/08 04:27:09;;;;;;;4.30;2.07;;;;;;;0.34;100.00;103235.34;6111349;28;20240;-67
2024/01/08 04:30:31;;;;;;;2.07;1.87;;;;;;;0.23;100.00;103232.78;6109633;28;20625;-67
2024/01/08 04:33:51;;;;;;;7.10;5.10;;;;;;;0.28;100.00;103224.81;6118429;28;20733;-67
2024/01/08 04:37:14;;;;;;;4.27;2.93;;;;;;;0.26;100.00;103238.09;6113006;28;20227;-66
2024/01/08 04:40:35;;;;;;;1.60;1.50;;;;;;;0.32;100.00;103237.13;6115794;28;20236;-67
2024/01/08 04:43:55;;;;;;;8.10;6.13;;;;;;;0.32;100.00;103247.75;6117668;28;20867;-66
2024/01/08 04:47:16;;;;;;;4.63;4.00;;;;;;;0.36;100.00;103249.47;6121793;28;20498;-67
2024/01/08 04:50:37;;;;;;;5.07;2.93;;;;;;;0.39;100.00;103252.13;6108261;28;20232;-67
2024/01/08 04:54:00;;;;;;;12.53;9.43;;;;;;;0.46;100.00;103256.50;6114896;28;20228;-67
2024/01/08 04:57:21;;;;;;;7.50;4.80;;;;;;;0.49;100.00;103253.78;6114231;28;20236;-67
2024/01/08 05:00:42;;;;;;;5.50;4.97;;;;;;;0.44;100.00;103269.75;6114684;28;20236;-67
2024/01/08 05:04:03;;;;;;;6.40;5.13;;;;;;;0.36;100.00;103274.25;6105217;28;20239;-67
2024/01/08 05:07:24;;;;;;;5.13;4.10;;;;;;;0.29;100.00;103280.50;6114641;28;20622;-66
2024/01/08 05:10:46;;;;;;;4.70;3.27;;;;;;;0.44;100.00;103277.69;6108326;28;20229;-67
2024/01/08 05:14:08;;;;;;;2.87;2.10;;;;;;;0.50;100.00;103282.09;6110681;28;20360;-68
2024/01/08 05:17:29;;;;;;;1.70;1.60;;;;;;;0.46;100.00;103288.31;6114760;28;20236;-67
2024/01/08 05:20:50;;;;;;;1.73;1.60;;;;;;;0.34;100.00;103283.97;6111187;28;20227;-68
2024/01/08 05:24:11;;;;;;;2.20;1.50;;;;;;;0.40;100.00;103285.69;6109803;28;20584;-68
2024/01/08 05:27:34;;;;;;;2.60;2.23;;;;;;;0.41;100.00;103285.72;6115470;28;20239;-67
2024/01/08 05:30:55;;;;;;;2.00;1.80;;;;;;;0.30;100.00;103295.50;6110899;28;20232;-68
2024/01/08 05:34:16;;;;;;;1.73;1.60;;;;;;;0.27;100.00;103292.00;6118533;28;20240;-65
2024/01/08 05:37:37;;;;;;;1.37;1.27;;;;;;;0.35;100.00;103290.19;6115447;28;20326;-67
2024/01/08 05:40:58;;;;;;;1.13;1.03;;;;;;;0.38;100.00;103296.31;6113261;28;20236;-67
2024/01/08 05:44:20;;;;;;;1.70;1.50;;;;;;;0.37;100.00;103297.25;6115221;28;20236;-67
2024/01/08 05:47:42;;;;;;;1.37;1.27;;;;;;;0.30;100.00;103303.47;6113219;28;20255;-66
2024/01/08 05:51:04;;;;;;;1.47;1.37;;;;;;;0.17;100.00;103300.94;6121622;28;20228;-67
2024/01/08 05:54:25;;;;;;;2.07;1.90;;;;;;;0.33;100.00;103305.22;6115942;28;20494;-66
2024/01/08 05:57:46;;;;;;;1.73;1.63;;;;;;;0.41;100.00;103300.72;6113461;28;20232;-68
2024/01/08 06:01:08;;;;;;;1.93;1.83;;;;;;;0.41;100.00;103303.38;6102613;28;20248;-68
2024/01/08 06:04:29;;;;;;;4.73;2.03;;;;;;;0.30;100.00;103308.78;6116352;28;20235;-67
2024/01/08 06:07:50;;;;;;;1.87;1.77;;;;;;;0.33;100.00;103310.53;6111766;28;20323;-67
2024/01/08 06:11:10;;;;;;;2.93;1.30;;;;;;;0.27;100.00;103319.38;6110875;28;20591;-67
2024/01/08 06:14:31;;;;;;;1.30;1.30;;;;;;;0.41;100.00;103306.94;6108533;28;20240;-67
2024/01/08 06:17:54;;;;;;;2.03;1.53;;;;;;;0.47;100.00;103317.50;6112111;28;20230;-69
2024/01/08 06:21:15;;;;;;;1.60;1.43;;;;;;;0.52;100.00;103320.97;6104365;28;20227;-69
2024/01/08 06:24:36;;;;;;;1.47;1.30;;;;;;;0.55;100.00;103322.72;6104971;28;20247;-68
2024/01/08 06:27:56;;;;;;;1.27;1.03;;;;;;;0.55;100.00;103328.03;6102155;28;20232;-69
2024/01/08 06:31:17;;;;;;;1.73;1.63;;;;;;;1.36;100.00;103327.22;6106785;28;20236;-67
2024/01/08 06:34:39;;;;;;;1.87;1.70;;;;;;;1.41;100.00;103332.47;6105991;28;20239;-69
2024/01/08 06:38:01;;;;;;;1.60;1.50;;;;;;;0.92;100.00;103324.16;6108028;28;20614;-67
2024/01/08 06:41:22;;;;;;;2.37;2.17;;;;;;;0.82;100.00;103333.09;6119175;28;20240;-68
2024/01/08 06:44:43;;;;;;;3.20;2.03;;;;;;;0.52;100.00;103330.72;6100922;28;20299;-68
2024/01/08 06:48:05;;;;;;;2.70;1.90;;;;;;;0.52;100.00;103339.53;6103508;28;20236;-67
2024/01/08 06:51:27;;;;;;;4.53;1.70;;;;;;;0.61;100.00;103331.50;6109676;28;20645;-69
2024/01/08 06:54:48;;;;;;;2.27;1.93;;;;;;;0.60;100.00;103350.09;6115152;28;20224;-68
2024/01/08 06:58:09;;;;;;;3.13;2.17;;;;;;;0.40;100.00;103347.59;6112142;28;20227;-69
2024/01/08 07:01:30;;;;;;;1.90;1.80;;;;;;;0.54;100.00;103364.28;6111543;28;21196;-69
2024/01/08 07:04:52;;;;;;;2.27;2.07;;;;;;;0.58;100.00;103359.84;6103720;28;20227;-67
2024/01/08 07:08:14;;;;;;;3.60;1.63;;;;;;;0.45;100.00;103368.78;6103760;28;20235;-68
2024/01/08 07:11:35;;;;;;;2.10;1.90;;;;;;;0.35;100.00;103375.06;6103294;28;20253;-68
2024/01/08 07:14:57;;;;;;;1.87;1.20;;;;;;;0.42;100.00;103374.09;6105669;28;20231;-68
2024/01/08 07:18:19;;;;;;;1.30;1.20;;;;;;;0.37;100.00;103375.94;6112014;28;20606;-68
2024/01/08 07:21:39;;;;;;;1.67;1.57;;;;;;;0.52;100.00;103379.34;6106373;28;20227;-68
2024/01/08 07:25:02;;;;;;;1.63;1.53;;;;;;;0.39;100.00;103380.34;6105345;28;20264;-69
2024/01/08 07:28:22;;;;;;;3.50;2.90;;;;;;;0.44;100.00;103388.28;6114506;28;20231;-68
2024/01/08 07:31:43;;;;;;;2.97;2.77;;;;;;;0.30;100.00;103393.66;6109304;28;20591;-69
2024/01/08 07:35:05;;;;;;;1.60;1.50;;;;;;;0.31;100.00;103394.53;6119660;28;20236;-70
2024/01/08 07:38:25;;;;;;;2.37;1.40;;;;;;;0.46;100.00;103405.06;6105370;28;20235;-68
2024/01/08 07:41:49;;;;;;;6.33;2.23;;;;;;;0.45;100.00;103420.09;6105356;28;20231;-68
2024/01/08 07:45:11;;;;;;;2.53;2.07;;;;;;;0.49;100.00;103418.28;6104264;28;20223;-69
2024/01/08 07:48:33;;;;;;;1.87;1.53;;;;;;;0.43;100.00;103413.91;6109923;28;20240;-70
2024/01/08 07:51:54;;;;;;;3.07;1.40;;;;;;;0.44;100.00;103423.63;6115276;28;20243;-68
2024/01/08 07:55:15;;;;;;;2.97;2.10;;;;;;;0.55;100.00;103427.09;6100731;28;20227;-70
2024/01/08 07:58:38;;;;;;;2.17;1.80;;;;;;;0.40;100.00;103431.59;6111253;28;20259;-70
2024/01/08 08:01:58;;;;;;;1.93;1.20;;;;;;;0.23;100.00;103434.34;6108438;28;20231;-67
2024/01/08 08:05:19;;;;;;;3.37;2.30;;;;;;;0.38;100.00;103447.53;6112962;28;20227;-67
2024/01/08 08:08:40;;;;;;;2.33;1.73;;;;;;;0.46;100.00;103443.06;6108173;28;20232;-67
2024/01/08 08:12:01;;;;;;;1.83;1.73;;;;;;;0.41;100.00;103452.84;6103791;28;20239;-69
2024/01/08 08:15:24;;;;;;;2.47;2.27;;;;;;;0.53;100.00;103466.03;6103350;28;20356;-68
2024/01/08 08:18:45;;;;;;;2.10;1.90;;;;;;;0.40;100.00;103471.38;6107074;28;20594;-68
2024/01/08 08:22:06;;;;;;;2.20;2.00;;;;;;;0.33;100.00;103474.97;6110905;28;20231;-69
2024/01/08 08:25:27;;;;;;;2.57;1.87;;;;;;;0.08;100.00;103476.88;6096875;28;20232;-68
2024/01/08 08:28:48;;;;;;;1.97;1.77;;;;;;;0.24;100.00;103498.88;6103725;28;20231;-68
2024/01/08 08:32:10;;;;;;;4.33;3.27;;;;;;;0.21;100.00;103494.47;6100972;28;20239;-68
2024/01/08 08:35:31;;;;;;;2.50;2.07;;;;;;;0.32;100.00;103495.31;6110345;28;20553;-67
2024/01/08 08:38:52;;;;;;;1.83;1.73;;;;;;;0.49;100.00;103495.22;6108572;28;20236;-68
2024/01/08 08:42:13;;;;;;;2.17;1.43;;;;;;;0.46;100.00;103503.22;6105328;28;20228;-68
2024/01/08 08:45:34;;;;;;;2.03;1.90;;;;;;;0.61;100.00;103504.00;6108793;28;20248;-68
2024/01/08 08:48:56;;;;;;;3.43;3.13;;;;;;;0.28;100.00;103521.84;6101735;28;20240;-69
2024/01/08 08:52:17;;;;;;;2.20;2.00;;;;;;;0.46;100.00;103514.69;6095651;28;20227;-69
2024/01/08 08:55:37;;;;;;;1.60;1.50;;;;;;;0.30;100.00;103531.56;6103153;28;20239;-67
2024/01/08 08:58:58;;;;;;;1.83;1.70;;;;;;;0.45;100.00;103535.94;6104397;28;20587;-66
2024/01/08 09:02:19;;;;;;;2.93;2.73;;;;;;;0.56;100.00;103534.13;6108445;28;20235;-66
2024/01/08 09:05:41;;;;;;;1.70;1.60;;;;;;;0.60;100.00;103534.09;6108880;28;20232;-66
2024/01/08 09:09:02;;;;;;;2.17;1.97;;;;;;;0.72;100.00;103541.09;6111276;28;20266;-66
2024/01/08 09:12:23;;;;;;;1.63;1.53;;;;;;;0.60;100.00;103547.38;6109962;28;20272;-66
2024/01/08 09:15:44;;;;;;;2.47;2.00;;;;;;;0.59;100.00;103557.97;6112549;28;20244;-66
2024/01/08 09:19:05;;;;;;;6.23;2.07;;;;;;;0.83;100.00;103555.22;6106530;28;20232;-67
2024/01/08 09:22:27;;;;;;;1.63;1.43;;;;;;;0.88;100.00;103552.53;6116266;28;20254;-68
2024/01/08 09:25:48;;;;;;;1.90;1.80;;;;;;;0.87;100.00;103572.00;6115845;28;20236;-67
2024/01/08 09:29:09;;;;;;;2.53;1.80;;;;;;;1.05;100.00;103574.53;6113971;28;20240;-67
2024/01/08 09:32:30;;;;;;;2.93;2.73;;;;;;;1.25;100.00;103578.81;6114870;28;20228;-66
2024/01/08 09:35:51;;;;;;;3.43;2.13;;;;;;;1.41;100.00;103569.88;6118970;28;20243;-67
2024/01/08 09:39:13;;;;;;;3.70;3.10;;;;;;;2.21;100.00;103584.19;6111847;28;20231;-66
2024/01/08 09:42:36;;;;;;;1.93;1.57;;;;;;;2.35;100.00;103580.47;6120524;28;20235;-67
2024/01/08 09:46:02;;;;;;;1.97;1.60;;;;;;;1.81;100.00;103578.38;6107390;28;20223;-67
2024/01/08 09:49:24;;;;;;;1.73;1.63;;;;;;;1.67;100.00;103587.38;6111782;28;20232;-67
2024/01/08 09:52:46;;;;;;;1.67;1.57;;;;;;;1.98;100.00;103584.41;6109143;28;20236;-66
2024/01/08 09:56:10;;;;;;;2.10;1.60;;;;;;;2.68;100.00;103581.84;6111362;28;20327;-67
2024/01/08 09:59:32;;;;;;;2.07;1.63;;;;;;;3.21;100.00;103578.44;6116353;28;20231;-67
2024/01/08 10:02:56;;;;;;;1.50;1.40;;;;;;;3.77;100.00;103581.09;6115752;28;20262;-67
2024/01/08 10:06:16;;;;;;;1.87;1.73;;;;;;;3.95;97.46;103572.75;6112097;28;20330;-66
2024/01/08 10:09:37;;;;;;;1.90;1.47;;;;;;;3.46;96.37;103576.28;6110071;28;20232;-67
2024/01/08 10:13:00;;;;;;;1.60;1.50;;;;;;;3.34;95.28;103573.81;6109277;28;20231;-67
2024/01/08 10:16:21;;;;;;;1.63;1.53;;;;;;;3.36;96.57;103580.00;6107495;28;20247;-67
2024/01/08 10:19:41;;;;;;;3.80;1.60;;;;;;;7.59;85.20;103559.72;6111947;28;20243;-67
2024/01/08 10:23:06;;;;;;;1.83;1.73;;;;;;;9.20;72.23;103558.25;6116428;28;20243;-68
2024/01/08 10:26:29;;;;;;;2.13;1.80;;;;;;;10.48;64.12;103551.78;6114811;28;20617;-67
2024/01/08 10:29:51;;;;;;;2.30;1.80;;;;;;;12.13;53.00;103547.22;6107408;28;20326;-67
2024/01/08 10:33:12;;;;;;;1.53;1.43;;;;;;;9.38;56.65;103552.09;6109824;28;20254;-66
2024/01/08 10:36:33;;;;;;;2.60;1.93;;;;;;;6.71;63.39;103567.00;6120024;28;20638;-68
2024/01/08 10:39:56;;;;;;;2.20;1.63;;;;;;;4.69;74.28;103565.91;6113526;28;20228;-67
2024/01/08 10:43:17;;;;;;;2.87;2.00;;;;;;;3.47;82.25;103576.25;6096343;28;20232;-68
2024/01/08 10:46:45;;;;;;;3.87;2.37;;;;;;;3.08;86.99;103587.50;6112280;28;20606;-67
2024/01/08 10:50:06;;;;;;;2.03;1.93;;;;;;;2.40;91.92;103575.06;6109481;28;20236;-66
2024/01/08 10:53:35;;;;;;;3.77;1.80;;;;;;;2.40;94.98;103578.63;6107816;28;20974;-67
2024/01/08 10:57:00;;;;;;;1.53;1.43;;;;;;;2.69;97.19;103580.91;6112176;28;20231;-68
2024/01/08 11:00:22;;;;;;;1.80;1.70;;;;;;;2.48;99.36;103567.91;6116900;28;20228;-67
2024/01/08 11:03:44;;;;;;;3.77;2.40;;;;;;;2.16;100.00;103573.59;6115733;28;20565;-67
2024/01/08 11:07:06;;;;;;;2.80;2.57;;;;;;;2.44;100.00;103574.16;6107479;28;20258;-67
2024/01/08 11:10:29;;;;;;;2.20;2.00;;;;;;;2.39;100.00;103576.00;6105588;28;20235;-67
2024/01/08 11:13:50;;;;;;;2.07;1.30;;;;;;;2.96;100.00;103575.22;6099749;28;20629;-67
2024/01/08 11:17:11;;;;;;;2.70;2.50;;;;;;;2.82;100.00;103563.88;6111219;28;20236;-69
2024/01/08 11:20:45;;;;;;;1.63;1.50;;;;;;;2.47;100.00;103568.78;6104625;28;20228;-67
2024/01/08 11:24:09;;;;;;;2.07;1.73;;;;;;;2.28;100.00;103560.16;6106520;28;20252;-68
2024/01/08 11:27:32;;;;;;;2.10;1.90;;;;;;;2.58;100.00;103558.00;6109554;28;20235;-67
2024/01/08 11:31:16;;;;;;;1.77;1.67;;;;;;;2.76;100.00;103558.66;6109479;28;20239;-68
2024/01/08 11:34:56;;;;;;;2.10;1.90;;;;;;;2.92;100.00;103562.00;6083557;28;20239;-68
2024/01/08 11:38:26;;;;;;;1.43;1.33;;;;;;;2.90;100.00;103556.66;6102190;28;20815;-67
2024/01/08 11:41:48;;;;;;;2.30;1.93;;;;;;;2.82;100.00;103568.31;6114948;28;20239;-68
2024/01/08 11:45:09;;;;;;;2.27;2.07;;;;;;;2.77;100.00;103559.53;6112688;28;20235;-68
2024/01/08 11:48:30;;;;;;;16.40;12.50;;;;;;;2.31;100.00;103560.13;6111970;28;20235;-68
2024/01/08 11:51:56;;;;;;;3.70;3.33;;;;;;;2.34;100.00;103559.19;6106106;28;20228;-68
2024/01/08 11:55:20;;;;;;;1.60;1.50;;;;;;;2.21;100.00;103563.75;6094904;28;20657;-69
2024/01/08 11:58:44;;;;;;;2.47;2.27;;;;;;;2.04;100.00;103560.44;6104975;28;20248;-67
2024/01/08 12:02:13;;;;;;;10.43;2.00;;;;;;;2.06;100.00;103568.38;6105575;28;20243;-69
2024/01/08 12:05:34;;;;;;;1.10;1.10;;;;;;;1.99;100.00;103562.25;6114863;28;20952;-69
2024/01/08 12:08:55;;;;;;;1.53;1.27;;;;;;;1.97;100.00;103568.47;6098944;28;20224;-68
2024/01/08 12:12:18;;;;;;;1.93;1.83;;;;;;;1.62;100.00;103555.50;6099469;28;20326;-66
2024/01/08 12:15:40;;;;;;;5.00;1.67;;;;;;;1.74;100.00;103568.69;6113073;28;20264;-67
2024/01/08 12:19:00;;;;;;;3.10;1.47;;;;;;;1.45;100.00;103565.41;6109816;28;20613;-67
2024/01/08 12:22:22;;;;;;;1.53;1.43;;;;;;;1.85;100.00;103566.81;6109232;28;20255;-69
2024/01/08 12:25:48;;;;;;;2.13;1.57;;;;;;;1.63;100.00;103565.22;6109112;28;20236;-68
2024/01/08 12:29:10;;;;;;;1.60;1.50;;;;;;;1.76;100.00;103568.66;6106701;28;20235;-69
2024/01/08 12:32:31;;;;;;;5.93;3.73;;;;;;;1.94;100.00;103563.19;6105293;28;20224;-68
2024/01/08 12:35:53;;;;;;;1.60;1.50;;;;;;;2.06;100.00;103573.69;6116376;28;20235;-67
2024/01/08 12:39:14;;;;;;;1.90;1.80;;;;;;;1.94;100.00;103566.72;6121228;28;20231;-67
2024/01/08 12:42:36;;;;;;;1.90;1.80;;;;;;;1.83;100.00;103570.38;6111607;28;20242;-68
2024/01/08 12:45:58;;;;;;;5.07;2.03;;;;;;;1.93;100.00;103570.28;6107680;28;20224;-67
2024/01/08 12:49:19;;;;;;;1.70;1.60;;;;;;;1.99;100.00;103575.53;6108616;28;20618;-67
2024/01/08 12:52:40;;;;;;;4.73;2.40;;;;;;;1.90;100.00;103575.63;6111517;28;20228;-67
2024/01/08 12:56:01;;;;;;;1.57;1.40;;;;;;;1.73;100.00;103574.03;6112326;28;20242;-68
2024/01/08 12:59:25;;;;;;;1.90;1.73;;;;;;;1.77;100.00;103573.09;6108443;28;20274;-68
2024/01/08 13:02:47;;;;;;;2.60;2.30;;;;;;;1.99;100.00;103577.31;6095876;28;20228;-68
2024/01/08 13:06:08;;;;;;;1.90;1.80;;;;;;;1.98;100.00;103581.75;6108075;28;20755;-67
2024/01/08 13:09:28;;;;;;;1.77;1.67;;;;;;;1.99;100.00;103585.28;6105245;28;20240;-69
2024/01/08 13:12:49;;;;;;;3.27;2.20;;;;;;;1.86;100.00;103584.53;6114933;28;20528;-68
2024/01/08 13:16:10;;;;;;;4.07;1.53;;;;;;;1.88;100.00;103587.19;6116640;28;20477;-66
2024/01/08 13:19:33;;;;;;;1.90;1.60;;;;;;;1.78;100.00;103604.09;6118624;28;20318;-68
2024/01/08 13:22:54;;;;;;;2.40;2.20;;;;;;;1.98;100.00;103594.19;6113207;28;20228;-70
2024/01/08 13:26:15;;;;;;;2.47;1.53;;;;;;;2.16;100.00;103593.97;6111786;28;20508;-68
2024/01/08 13:29:38;;;;;;;1.90;1.80;;;;;;;2.04;100.00;103610.97;6119058;28;20247;-69
2024/01/08 13:33:01;;;;;;;2.57;2.37;;;;;;;2.11;100.00;103609.09;6114830;28;20243;-68
2024/01/08 13:36:23;;;;;;;1.80;1.70;;;;;;;2.11;100.00;103606.44;6111861;28;20229;-68
2024/01/08 13:39:44;;;;;;;2.03;1.43;;;;;;;2.48;100.00;103602.50;6113007;28;20246;-69
2024/01/08 13:43:06;;;;;;;2.43;2.23;;;;;;;2.16;100.00;103597.53;6112864;28;20362;-68
2024/01/08 13:46:27;;;;;;;1.60;1.50;;;;;;;1.72;100.00;103609.47;6110761;28;20247;-68
2024/01/08 13:49:48;;;;;;;3.13;2.13;;;;;;;1.81;100.00;103614.72;6113189;28;20534;-68
2024/01/08 13:53:10;;;;;;;2.23;2.03;;;;;;;1.77;100.00;103605.91;6116726;28;20499;-67
2024/01/08 13:56:31;;;;;;;3.23;2.93;;;;;;;1.79;100.00;103603.22;6102622;28;21095;-67
2024/01/08 13:59:52;;;;;;;2.47;2.27;;;;;;;1.70;100.00;103608.59;6096195;28;20565;-67
2024/01/08 14:03:13;;;;;;;3.20;2.70;;;;;;;1.80;100.00;103620.91;6111799;28;20221;-68
2024/01/08 14:06:33;;;;;;;2.70;2.50;;;;;;;1.54;100.00;103610.53;6110960;28;20642;-67
2024/01/08 14:09:56;;;;;;;2.30;2.10;;;;;;;1.56;100.00;103617.56;6102731;28;20224;-69
2024/01/08 14:13:16;;;;;;;5.47;1.90;;;;;;;1.67;100.00;103624.59;6099830;28;20231;-67
2024/01/08 14:16:37;;;;;;;4.57;1.90;;;;;;;1.65;100.00;103619.25;6104840;28;20240;-67
2024/01/08 14:19:59;;;;;;;2.20;1.77;;;;;;;1.35;100.00;103627.47;6120016;28;20236;-66
2024/01/08 14:23:20;;;;;;;3.80;2.20;;;;;;;1.30;100.00;103626.63;6108568;28;20690;-68
2024/01/08 14:26:42;;;;;;;1.60;1.50;;;;;;;1.22;100.00;103628.44;6104302;28;20742;-67
2024/01/08 14:30:03;;;;;;;3.30;1.87;;;;;;;1.12;100.00;103624.97;6110955;28;20653;-65
2024/01/08 14:33:25;;;;;;;8.83;2.03;;;;;;;0.94;100.00;103633.00;6104096;28;20239;-67
2024/01/08 14:36:46;;;;;;;7.97;6.90;;;;;;;0.77;100.00;103635.75;6104057;28;20227;-68
2024/01/08 14:40:09;;;;;;;3.70;2.53;;;;;;;0.69;100.00;103639.31;6111370;28;20235;-68
2024/01/08 14:43:31;;;;;;;4.47;2.30;;;;;;;0.73;100.00;103634.00;6097891;28;20232;-68
2024/01/08 14:46:52;;;;;;;3.00;2.77;;;;;;;0.78;100.00;103640.19;6098144;28;20240;-68
2024/01/08 14:50:13;;;;;;;3.60;2.33;;;;;;;0.72;100.00;103637.56;6094720;28;20252;-68
2024/01/08 14:53:36;;;;;;;2.43;2.23;;;;;;;0.66;100.00;103645.53;6097220;28;20267;-67
2024/01/08 14:56:57;;;;;;;2.20;1.83;;;;;;;0.58;100.00;103644.69;6100334;28;20228;-67
2024/01/08 15:00:20;;;;;;;2.20;2.07;;;;;;;0.44;100.00;103641.16;6094878;28;20610;-67
2024/01/08 15:03:43;;;;;;;3.43;2.13;;;;;;;0.35;100.00;103646.50;6099819;28;20263;-67
2024/01/08 15:07:07;;;;;;;2.40;2.03;;;;;;;0.32;100.00;103651.81;6107115;28;20236;-67
2024/01/08 15:10:28;;;;;;;2.23;2.03;;;;;;;0.21;100.00;103656.25;6092273;28;20240;-67
2024/01/08 15:13:49;;;;;;;3.80;3.50;;;;;;;0.20;100.00;103645.63;6110669;28;20251;-68
2024/01/08 15:17:13;;;;;;;3.40;2.87;;;;;;;0.18;100.00;103658.03;6116432;28;20330;-68
2024/01/08 15:20:34;;;;;;;2.80;2.47;;;;;;;0.04;100.00;103657.16;6107565;28;20493;-68
2024/01/08 15:23:55;;;;;;;8.13;5.97;;;;;;;0.12;100.00;103660.69;6102719;28;20224;-69
2024/01/08 15:27:16;;;;;;;4.00;3.40;;;;;;;0.05;100.00;103659.81;6109412;28;20228;-68
2024/01/08 15:30:36;;;;;;;4.37;3.03;;;;;;;0.09;100.00;103666.88;6108523;28;20236;-68
2024/01/08 15:33:58;;;;;;;2.53;2.43;;;;;;;0.04;100.00;103673.06;6112619;28;20259;-68
2024/01/08 15:37:20;;;;;;;3.53;3.13;;;;;;;0.09;100.00;103671.28;6110807;28;20318;-67